createdAt,value
2023-02-07T00:01:25.507Z,5.60
2023-02-07T00:03:54.471Z,5.88
2023-02-07T00:06:25.045Z,4.95
2023-02-07T00:08:53.029Z,5.78
2023-02-07T00:11:20.958Z,6.15
2023-02-07T00:13:50.518Z,5.20
2023-02-07T00:16:17.564Z,5.03
2023-02-07T00:18:44.561Z,4.57
2023-02-07T00:21:15.623Z,6.03
2023-02-07T00:23:44.000Z,6.40
2023-02-07T00:26:12.102Z,5.53
2023-02-07T00:28:40.106Z,6.30
2023-02-07T00:31:08.130Z,5.55
2023-02-07T00:33:36.631Z,5.68
2023-02-07T00:36:05.297Z,6.00
2023-02-07T00:38:32.325Z,5.40
2023-02-07T00:40:59.226Z,5.68
2023-02-07T00:43:29.973Z,5.93
2023-02-07T00:46:02.050Z,5.55
2023-02-07T00:48:30.602Z,5.57
2023-02-07T00:50:58.230Z,6.30
2023-02-07T00:53:25.962Z,6.00
2023-02-07T00:55:53.273Z,5.72
2023-02-07T00:58:21.034Z,5.85
2023-02-07T01:00:48.337Z,5.88
2023-02-07T01:03:15.322Z,5.70
2023-02-07T01:05:42.573Z,6.28
2023-02-07T01:08:09.701Z,6.47
2023-02-07T01:10:39.674Z,6.40
2023-02-07T01:13:07.914Z,5.25
2023-02-07T01:15:39.432Z,5.50
2023-02-07T01:18:07.960Z,4.93
2023-02-07T01:20:35.684Z,5.32
2023-02-07T01:23:05.746Z,5.93
2023-02-07T01:25:33.431Z,5.68
2023-02-07T01:28:00.397Z,5.30
2023-02-07T01:30:27.324Z,5.10
2023-02-07T01:32:54.138Z,5.45
2023-02-07T01:35:21.009Z,5.78
2023-02-07T01:37:47.740Z,7.93
2023-02-07T01:40:14.717Z,6.17
2023-02-07T01:42:41.554Z,6.65
2023-02-07T01:45:23.724Z,8.07
2023-02-07T01:47:53.773Z,8.70
2023-02-07T01:50:21.517Z,6.63
2023-02-07T01:52:48.900Z,7.23
2023-02-07T01:55:22.879Z,6.75
2023-02-07T01:57:49.876Z,6.53
2023-02-07T02:00:17.895Z,6.20
2023-02-07T02:02:45.969Z,7.00
2023-02-07T02:05:15.794Z,7.03
2023-02-07T02:07:42.889Z,6.50
2023-02-07T02:10:19.892Z,5.82
2023-02-07T02:13:06.151Z,5.57
2023-02-07T02:15:39.858Z,5.15
2023-02-07T02:18:39.099Z,5.37
2023-02-07T02:21:22.026Z,5.30
2023-02-07T02:24:20.319Z,4.95
2023-02-07T02:27:08.430Z,5.03
2023-02-07T02:30:06.422Z,4.88
2023-02-07T02:33:02.599Z,4.87
2023-02-07T02:35:51.141Z,4.53
2023-02-07T02:38:39.013Z,5.10
2023-02-07T02:41:22.297Z,5.90
2023-02-07T02:43:52.261Z,5.00
2023-02-07T02:46:25.336Z,5.50
2023-02-07T02:48:54.791Z,5.20
2023-02-07T02:51:21.577Z,5.53
2023-02-07T02:53:55.578Z,5.68
2023-02-07T02:57:00.937Z,5.63
2023-02-07T02:59:49.935Z,4.90
2023-02-07T03:02:35.362Z,4.75
2023-02-07T03:05:11.234Z,4.63
2023-02-07T03:08:03.568Z,5.32
2023-02-07T03:10:48.156Z,3.53
2023-02-07T03:13:21.047Z,4.13
2023-02-07T03:15:50.932Z,4.45
2023-02-07T03:18:37.146Z,8.00
2023-02-07T03:21:14.939Z,7.07
2023-02-07T03:23:44.166Z,5.38
2023-02-07T03:26:11.799Z,5.27
2023-02-07T03:28:41.400Z,8.40
2023-02-07T03:31:13.501Z,6.38
2023-02-07T03:33:41.616Z,6.25
2023-02-07T03:36:30.302Z,5.80
2023-02-07T03:38:57.244Z,6.30
2023-02-07T03:41:37.380Z,6.90
2023-02-07T03:44:07.228Z,7.53
2023-02-07T03:46:38.163Z,6.13
2023-02-07T03:49:05.879Z,6.30
2023-02-07T03:51:32.746Z,6.97
2023-02-07T03:53:59.497Z,7.85
2023-02-07T03:56:26.401Z,8.15
2023-02-07T03:58:53.564Z,7.63
2023-02-07T04:01:20.389Z,7.20
2023-02-07T04:03:47.143Z,6.33
2023-02-07T04:06:13.998Z,5.30
2023-02-07T04:08:40.790Z,5.97
2023-02-07T04:11:07.576Z,5.63
2023-02-07T04:13:34.492Z,5.90
2023-02-07T04:16:01.438Z,5.73
2023-02-07T04:18:28.210Z,5.75
2023-02-07T04:21:03.636Z,5.57
2023-02-07T04:23:30.848Z,6.63
2023-02-07T04:25:57.930Z,7.30
2023-02-07T04:28:25.274Z,6.43
2023-02-07T04:30:52.494Z,5.78
2023-02-07T04:33:21.184Z,5.68
2023-02-07T04:35:56.265Z,5.07
2023-02-07T04:38:23.231Z,5.28
2023-02-07T04:40:50.162Z,4.67
2023-02-07T04:43:18.558Z,4.85
2023-02-07T04:45:48.687Z,4.47
2023-02-07T04:48:15.703Z,4.07
2023-02-07T04:50:42.477Z,4.47
2023-02-07T04:53:09.223Z,4.40
2023-02-07T04:55:37.414Z,4.60
2023-02-07T04:58:05.341Z,4.95
2023-02-07T05:00:32.272Z,5.18
2023-02-07T05:03:00.756Z,5.07
2023-02-07T05:05:27.786Z,5.17
2023-02-07T05:07:54.647Z,4.97
2023-02-07T05:10:21.425Z,5.25
2023-02-07T05:12:48.340Z,4.85
2023-02-07T05:15:15.154Z,5.75
2023-02-07T05:17:41.886Z,4.73
2023-02-07T05:20:09.240Z,5.53
2023-02-07T05:22:35.977Z,4.93
2023-02-07T05:25:03.033Z,5.32
2023-02-07T05:27:29.859Z,8.20
2023-02-07T05:29:56.651Z,6.57
2023-02-07T05:32:41.739Z,6.35
2023-02-07T05:35:08.487Z,7.00
2023-02-07T05:37:35.248Z,7.72
2023-02-07T05:40:02.010Z,8.05
2023-02-07T05:42:28.745Z,9.33
2023-02-07T05:44:55.659Z,11.25
2023-02-07T05:47:22.464Z,10.52
2023-02-07T05:49:49.243Z,9.40
2023-02-07T05:52:16.050Z,7.75
2023-02-07T05:54:42.806Z,5.33
2023-02-07T05:57:09.645Z,5.70
2023-02-07T05:59:36.483Z,5.75
2023-02-07T06:02:03.302Z,5.47
2023-02-07T06:04:30.061Z,5.75
2023-02-07T06:06:56.853Z,4.43
2023-02-07T06:09:23.662Z,6.22
2023-02-07T06:11:50.440Z,6.97
2023-02-07T06:14:17.630Z,6.38
2023-02-07T06:16:44.471Z,6.28
2023-02-07T06:19:13.093Z,6.30
2023-02-07T06:21:46.358Z,5.50
2023-02-07T06:24:15.711Z,5.40
2023-02-07T06:26:43.209Z,5.28
2023-02-07T06:29:10.141Z,10.55
2023-02-07T06:31:36.980Z,14.33
2023-02-07T06:34:03.803Z,12.20
2023-02-07T06:36:30.556Z,8.13
2023-02-07T06:38:57.773Z,5.57
2023-02-07T06:41:24.899Z,5.80
2023-02-07T06:43:51.798Z,5.03
2023-02-07T06:46:18.531Z,5.13
2023-02-07T06:48:45.317Z,5.22
2023-02-07T06:51:12.078Z,4.45
2023-02-07T06:53:40.222Z,5.35
2023-02-07T06:56:07.395Z,5.43
2023-02-07T06:58:34.298Z,5.70
2023-02-07T07:01:02.383Z,5.78
2023-02-07T07:03:29.513Z,5.47
2023-02-07T07:05:57.891Z,5.15
2023-02-07T07:08:25.413Z,5.27
2023-02-07T07:10:52.616Z,5.25
2023-02-07T07:13:23.741Z,6.18
2023-02-07T07:15:50.635Z,5.10
2023-02-07T07:18:17.519Z,5.85
2023-02-07T07:20:44.314Z,6.17
2023-02-07T07:23:11.098Z,6.25
2023-02-07T07:25:38.136Z,5.85
2023-02-07T07:28:05.197Z,5.75
2023-02-07T07:30:31.986Z,5.82
2023-02-07T07:32:58.793Z,4.93
2023-02-07T07:35:25.537Z,5.97
2023-02-07T07:37:52.441Z,6.30
2023-02-07T07:40:19.442Z,7.40
2023-02-07T07:42:46.190Z,7.63
2023-02-07T07:45:34.297Z,5.53
2023-02-07T07:48:01.089Z,5.20
2023-02-07T07:50:27.862Z,5.30
2023-02-07T07:52:54.637Z,9.32
2023-02-07T07:55:21.473Z,8.52
2023-02-07T07:57:48.280Z,10.53
2023-02-07T08:00:15.597Z,9.25
2023-02-07T08:02:43.395Z,8.50
2023-02-07T08:05:13.524Z,7.70
2023-02-07T08:07:40.511Z,7.03
2023-02-07T08:10:07.377Z,6.73
2023-02-07T08:12:34.258Z,6.80
2023-02-07T08:15:00.997Z,7.05
2023-02-07T08:17:27.914Z,6.30
2023-02-07T08:19:54.667Z,7.22
2023-02-07T08:22:21.678Z,6.23
2023-02-07T08:24:48.521Z,6.20
2023-02-07T08:27:15.390Z,7.93
2023-02-07T08:29:42.475Z,7.75
2023-02-07T08:32:09.231Z,7.82
2023-02-07T08:34:37.686Z,7.30
2023-02-07T08:37:08.994Z,7.38
2023-02-07T08:39:36.268Z,9.10
2023-02-07T08:42:05.443Z,9.55
2023-02-07T08:44:32.466Z,8.80
2023-02-07T08:46:59.293Z,9.37
2023-02-07T08:49:26.141Z,11.32
2023-02-07T08:51:53.273Z,10.93
2023-02-07T08:54:20.109Z,11.02
2023-02-07T08:56:47.470Z,12.18
2023-02-07T08:59:14.248Z,11.60
2023-02-07T09:01:41.065Z,13.18
2023-02-07T09:04:09.887Z,11.98
2023-02-07T09:06:36.670Z,13.18
2023-02-07T09:09:03.682Z,12.80
2023-02-07T09:11:31.252Z,15.50
2023-02-07T09:13:58.116Z,10.15
2023-02-07T09:16:25.034Z,11.75
2023-02-07T09:18:52.147Z,9.82
2023-02-07T09:21:19.283Z,11.00
2023-02-07T09:23:46.206Z,13.30
2023-02-07T09:26:19.236Z,12.57
2023-02-07T09:28:46.187Z,14.38
2023-02-07T09:31:15.217Z,17.63
2023-02-07T09:33:43.036Z,16.52
2023-02-07T09:36:20.804Z,17.83
2023-02-07T09:38:47.993Z,13.32
2023-02-07T09:41:52.751Z,13.68
2023-02-07T09:44:46.380Z,15.95
2023-02-07T09:47:22.704Z,15.52
2023-02-07T09:49:56.265Z,14.00
2023-02-07T09:52:33.349Z,14.40
2023-02-07T09:55:01.042Z,16.42
2023-02-07T09:57:37.662Z,13.20
2023-02-07T10:00:10.266Z,16.88
2023-02-07T10:02:49.459Z,16.37
2023-02-07T10:05:20.070Z,13.15
2023-02-07T10:07:48.922Z,13.15
2023-02-07T10:10:35.987Z,15.45
2023-02-07T10:13:02.701Z,16.63
2023-02-07T10:15:47.936Z,15.93
2023-02-07T10:18:46.919Z,16.08
2023-02-07T10:21:41.318Z,12.77
2023-02-07T10:24:51.885Z,13.60
2023-02-07T10:28:03.944Z,17.58
2023-02-07T10:30:35.340Z,16.20
2023-02-07T10:33:12.376Z,13.77
2023-02-07T10:35:39.630Z,14.20
2023-02-07T10:38:30.968Z,14.50
2023-02-07T10:41:06.359Z,17.83
2023-02-07T10:43:35.025Z,17.80
2023-02-07T10:46:10.606Z,14.23
2023-02-07T10:48:38.570Z,17.00
2023-02-07T10:51:21.147Z,14.50
2023-02-07T10:54:00.566Z,17.95
2023-02-07T10:56:28.244Z,14.37
2023-02-07T10:58:58.850Z,17.42
2023-02-07T11:01:31.159Z,11.45
2023-02-07T11:03:58.462Z,14.57
2023-02-07T11:06:28.288Z,17.27
2023-02-07T11:09:22.375Z,17.73
2023-02-07T11:11:54.702Z,15.68
2023-02-07T11:14:27.992Z,17.23
2023-02-07T11:16:56.135Z,17.27
2023-02-07T11:19:26.625Z,16.55
2023-02-07T11:22:08.738Z,12.87
2023-02-07T11:24:37.418Z,15.50
2023-02-07T11:27:12.743Z,15.88
2023-02-07T11:29:59.310Z,15.90
2023-02-07T11:32:27.837Z,15.98
2023-02-07T11:35:01.550Z,16.27
2023-02-07T11:37:35.336Z,16.48
2023-02-07T11:40:31.132Z,17.20
2023-02-07T11:43:06.881Z,12.05
2023-02-07T11:45:37.466Z,12.65
2023-02-07T11:48:05.957Z,14.90
2023-02-07T11:50:43.446Z,12.43
2023-02-07T11:53:26.605Z,14.10
2023-02-07T11:55:55.640Z,11.40
2023-02-07T11:58:46.608Z,9.40
2023-02-07T12:01:18.257Z,11.30
2023-02-07T12:03:58.450Z,12.32
2023-02-07T12:06:31.729Z,8.32
2023-02-07T12:08:59.138Z,13.98
2023-02-07T12:11:31.600Z,10.10
2023-02-07T12:14:11.111Z,12.87
2023-02-07T12:16:51.066Z,12.50
2023-02-07T12:19:23.741Z,11.32
2023-02-07T12:22:21.063Z,11.10
2023-02-07T12:25:23.005Z,12.60
2023-02-07T12:27:53.049Z,12.63
2023-02-07T12:30:25.743Z,10.10
2023-02-07T12:33:03.640Z,11.85
2023-02-07T12:35:51.963Z,10.15
2023-02-07T12:38:33.418Z,11.13
2023-02-07T12:41:14.948Z,9.73
2023-02-07T12:43:56.845Z,9.45
2023-02-07T12:46:35.293Z,7.50
2023-02-07T12:49:02.059Z,7.57
2023-02-07T12:51:43.627Z,7.18
2023-02-07T12:54:43.904Z,7.40
2023-02-07T12:57:31.022Z,5.70
2023-02-07T13:00:12.285Z,5.88
2023-02-07T13:02:44.829Z,7.57
2023-02-07T13:05:17.452Z,6.78
2023-02-07T13:07:57.483Z,6.63
2023-02-07T13:10:54.114Z,8.43
2023-02-07T13:13:23.927Z,6.95
2023-02-07T13:16:04.680Z,7.03
2023-02-07T13:18:49.343Z,6.95
2023-02-07T13:21:42.497Z,5.97
2023-02-07T13:24:15.024Z,6.28
2023-02-07T13:26:46.589Z,4.97
2023-02-07T13:29:16.648Z,4.65
2023-02-07T13:31:47.824Z,6.30
2023-02-07T13:34:19.128Z,5.23
2023-02-07T13:36:52.570Z,7.65
2023-02-07T13:39:37.759Z,4.75
2023-02-07T13:42:36.165Z,5.60
2023-02-07T13:45:35.728Z,5.75
2023-02-07T13:48:40.105Z,4.83
2023-02-07T13:51:15.022Z,3.53
2023-02-07T13:53:51.684Z,2.83
2023-02-07T13:56:49.967Z,3.22
2023-02-07T13:59:41.270Z,2.80
2023-02-07T14:02:22.364Z,3.07
2023-02-07T14:04:57.509Z,3.78
2023-02-07T14:07:31.340Z,3.20
2023-02-07T14:09:59.170Z,4.38
2023-02-07T14:12:35.455Z,2.65
2023-02-07T14:15:34.871Z,2.77
2023-02-07T14:18:26.403Z,3.92
2023-02-07T14:21:02.227Z,3.15
2023-02-07T14:24:01.476Z,3.70
2023-02-07T14:26:40.195Z,3.22
2023-02-07T14:29:50.978Z,3.93
2023-02-07T14:32:20.734Z,3.10
2023-02-07T14:35:16.855Z,3.40
2023-02-07T14:37:51.387Z,3.25
2023-02-07T14:40:23.845Z,4.10
2023-02-07T14:43:22.978Z,3.67
2023-02-07T14:45:52.788Z,3.22
2023-02-07T14:48:40.186Z,3.20
2023-02-07T14:51:17.014Z,3.08
2023-02-07T14:53:46.462Z,3.85
2023-02-07T14:56:28.679Z,3.27
2023-02-07T14:58:57.685Z,4.00
2023-02-07T15:01:25.652Z,4.18
2023-02-07T15:04:05.536Z,4.93
2023-02-07T15:06:46.443Z,5.15
2023-02-07T15:09:26.532Z,5.10
2023-02-07T15:12:08.733Z,5.65
2023-02-07T15:14:43.191Z,5.20
2023-02-07T15:17:10.959Z,5.70
2023-02-07T15:19:40.751Z,6.45
2023-02-07T15:22:24.032Z,5.87
2023-02-07T15:24:55.280Z,5.93
2023-02-07T15:27:26.067Z,5.85
2023-02-07T15:30:01.117Z,5.57
2023-02-07T15:32:31.008Z,4.43
2023-02-07T15:34:58.491Z,4.33
2023-02-07T15:37:26.501Z,5.60
2023-02-07T15:39:55.110Z,5.85
2023-02-07T15:42:22.750Z,4.80
2023-02-07T15:44:52.365Z,6.50
2023-02-07T15:47:37.432Z,6.17
2023-02-07T15:50:23.078Z,7.25
2023-02-07T15:52:53.952Z,6.70
2023-02-07T15:55:33.015Z,7.38
2023-02-07T15:58:00.158Z,7.93
2023-02-07T16:00:30.193Z,12.20
2023-02-07T16:03:07.315Z,9.43
2023-02-07T16:05:38.934Z,8.20
2023-02-07T16:08:29.840Z,7.15
2023-02-07T16:11:12.355Z,8.18
2023-02-07T16:14:16.614Z,8.67
2023-02-07T16:16:53.746Z,7.50
2023-02-07T16:19:28.215Z,8.25
2023-02-07T16:22:01.769Z,7.68
2023-02-07T16:24:29.347Z,8.23
2023-02-07T16:26:58.544Z,8.03
2023-02-07T16:29:28.654Z,7.68
2023-02-07T16:31:55.820Z,7.40
2023-02-07T16:34:23.037Z,7.88
2023-02-07T16:36:55.952Z,8.82
2023-02-07T16:39:25.923Z,7.97
2023-02-07T16:41:56.667Z,8.10
2023-02-07T16:44:25.660Z,8.23
2023-02-07T16:46:52.623Z,7.60
2023-02-07T16:49:24.664Z,8.30
2023-02-07T16:51:52.191Z,7.00
2023-02-07T16:54:19.593Z,8.40
2023-02-07T16:56:48.912Z,7.95
2023-02-07T16:59:18.561Z,9.15
2023-02-07T17:01:45.968Z,10.02
2023-02-07T17:04:13.450Z,13.30
2023-02-07T17:06:42.054Z,12.45
2023-02-07T17:09:19.383Z,10.40
2023-02-07T17:11:46.902Z,10.45
2023-02-07T17:14:14.308Z,13.00
2023-02-07T17:16:41.176Z,10.20
2023-02-07T17:19:14.577Z,9.00
2023-02-07T17:21:43.113Z,9.00
2023-02-07T17:24:10.978Z,8.40
2023-02-07T17:26:40.230Z,8.63
2023-02-07T17:29:07.485Z,8.20
2023-02-07T17:31:34.803Z,8.70
2023-02-07T17:34:01.713Z,9.05
2023-02-07T17:36:29.099Z,9.00
2023-02-07T17:38:59.215Z,10.45
2023-02-07T17:41:26.547Z,9.87
2023-02-07T17:43:53.869Z,8.85
2023-02-07T17:46:23.706Z,8.95
2023-02-07T17:48:51.290Z,9.18
2023-02-07T17:51:20.953Z,9.38
2023-02-07T17:53:47.710Z,8.33
2023-02-07T17:56:26.052Z,9.68
2023-02-07T17:58:54.876Z,9.90
2023-02-07T18:01:22.425Z,8.63
2023-02-07T18:03:51.072Z,9.20
2023-02-07T18:06:19.879Z,8.27
2023-02-07T18:08:46.964Z,7.40
2023-02-07T18:11:14.506Z,9.02
2023-02-07T18:13:43.323Z,9.13
2023-02-07T18:16:19.222Z,10.02
2023-02-07T18:18:45.958Z,13.67
2023-02-07T18:21:13.769Z,10.77
2023-02-07T18:23:43.049Z,9.75
2023-02-07T18:26:11.626Z,9.25
2023-02-07T18:28:40.573Z,9.07
2023-02-07T18:31:18.766Z,8.30
2023-02-07T18:33:46.297Z,7.68
2023-02-07T18:36:13.159Z,8.45
2023-02-07T18:38:40.076Z,7.88
2023-02-07T18:41:12.329Z,8.10
2023-02-07T18:43:40.491Z,7.37
2023-02-07T18:46:16.603Z,8.23
2023-02-07T18:48:51.107Z,13.05
2023-02-07T18:51:18.514Z,13.55
2023-02-07T18:53:45.594Z,11.77
2023-02-07T18:56:15.738Z,9.57
2023-02-07T18:58:43.729Z,10.13
2023-02-07T19:01:15.148Z,11.52
2023-02-07T19:03:41.896Z,9.88
2023-02-07T19:06:08.647Z,11.43
2023-02-07T19:08:36.016Z,11.27
2023-02-07T19:11:05.614Z,10.73
2023-02-07T19:13:33.638Z,10.65
2023-02-07T19:16:26.622Z,9.05
2023-02-07T19:18:53.932Z,9.68
2023-02-07T19:21:27.139Z,9.27
2023-02-07T19:23:55.701Z,12.95
2023-02-07T19:26:24.236Z,13.60
2023-02-07T19:28:54.766Z,12.70
2023-02-07T19:31:22.045Z,11.90
2023-02-07T19:33:50.548Z,9.80
2023-02-07T19:36:18.767Z,10.70
2023-02-07T19:38:48.576Z,8.98
2023-02-07T19:41:17.159Z,8.82
2023-02-07T19:43:45.005Z,8.80
2023-02-07T19:46:11.788Z,8.90
2023-02-07T19:48:38.709Z,11.55
2023-02-07T19:51:09.943Z,12.10
2023-02-07T19:53:36.940Z,9.60
2023-02-07T19:56:09.582Z,9.25
2023-02-07T19:58:42.831Z,7.97
2023-02-07T20:01:10.441Z,8.60
2023-02-07T20:03:39.320Z,8.60
2023-02-07T20:06:11.783Z,8.95
2023-02-07T20:08:39.928Z,9.40
2023-02-07T20:11:09.008Z,8.40
2023-02-07T20:13:38.218Z,8.13
2023-02-07T20:16:09.848Z,8.18
2023-02-07T20:18:36.894Z,7.45
2023-02-07T20:21:11.918Z,6.75
2023-02-07T20:23:41.720Z,6.90
2023-02-07T20:26:12.405Z,6.10
2023-02-07T20:28:39.447Z,6.93
2023-02-07T20:31:08.402Z,6.47
2023-02-07T20:33:36.378Z,7.15
2023-02-07T20:36:03.752Z,6.90
2023-02-07T20:38:31.006Z,6.28
2023-02-07T20:41:10.103Z,7.57
2023-02-07T20:43:37.423Z,6.47
2023-02-07T20:46:05.907Z,6.32
2023-02-07T20:48:32.657Z,6.50
2023-02-07T20:50:59.833Z,7.18
2023-02-07T20:53:26.990Z,6.63
2023-02-07T20:55:53.762Z,6.15
2023-02-07T20:58:20.527Z,7.00
2023-02-07T21:00:47.292Z,6.43
2023-02-07T21:03:14.110Z,6.60
2023-02-07T21:05:40.893Z,6.22
2023-02-07T21:08:07.694Z,6.38
2023-02-07T21:10:34.613Z,5.85
2023-02-07T21:13:01.382Z,6.97
2023-02-07T21:15:28.393Z,6.18
2023-02-07T21:17:55.169Z,5.95
2023-02-07T21:20:21.874Z,6.05
2023-02-07T21:22:48.680Z,6.65
2023-02-07T21:25:15.542Z,7.03
2023-02-07T21:27:42.322Z,6.70
2023-02-07T21:30:10.268Z,7.05
2023-02-07T21:32:37.059Z,7.25
2023-02-07T21:35:03.869Z,6.85
2023-02-07T21:37:30.615Z,6.23
2023-02-07T21:39:57.474Z,6.03
2023-02-07T21:42:24.194Z,6.00
2023-02-07T21:44:51.003Z,6.82
2023-02-07T21:47:17.790Z,5.90
2023-02-07T21:49:44.885Z,5.70
2023-02-07T21:52:12.007Z,6.38
2023-02-07T21:54:38.857Z,6.93
2023-02-07T21:57:05.697Z,6.40
2023-02-07T21:59:32.692Z,6.38
2023-02-07T22:02:00.453Z,6.17
2023-02-07T22:04:29.202Z,7.13
2023-02-07T22:06:56.070Z,7.50
2023-02-07T22:09:23.582Z,7.28
2023-02-07T22:11:50.719Z,8.63
2023-02-07T22:14:17.892Z,6.77
2023-02-07T22:16:45.082Z,6.32
2023-02-07T22:19:13.975Z,7.28
2023-02-07T22:21:40.841Z,7.40
2023-02-07T22:24:07.751Z,7.47
2023-02-07T22:26:34.861Z,7.07
2023-02-07T22:29:02.712Z,7.43
2023-02-07T22:31:31.262Z,7.43
2023-02-07T22:34:00.726Z,6.82
2023-02-07T22:36:29.798Z,7.22
2023-02-07T22:38:58.792Z,7.00
2023-02-07T22:41:26.053Z,7.63
2023-02-07T22:43:52.870Z,7.65
2023-02-07T22:46:22.665Z,7.13
2023-02-07T22:48:49.516Z,7.05
2023-02-07T22:51:32.400Z,7.23
2023-02-07T22:54:05.618Z,6.78
2023-02-07T22:56:33.469Z,7.38
2023-02-07T22:59:00.616Z,7.22
2023-02-07T23:01:30.641Z,9.70
2023-02-07T23:03:58.185Z,7.03
2023-02-07T23:06:26.226Z,6.55
2023-02-07T23:08:54.076Z,7.20
2023-02-07T23:11:23.034Z,7.45
2023-02-07T23:13:51.223Z,7.68
2023-02-07T23:16:21.184Z,6.27
2023-02-07T23:18:49.311Z,7.63
2023-02-07T23:21:19.054Z,7.50
2023-02-07T23:23:46.297Z,6.80
2023-02-07T23:26:16.029Z,7.32
2023-02-07T23:28:43.676Z,6.77
2023-02-07T23:31:13.495Z,6.60
2023-02-07T23:33:40.498Z,6.22
2023-02-07T23:36:07.926Z,6.85
2023-02-07T23:38:34.950Z,6.90
2023-02-07T23:41:01.800Z,6.30
2023-02-07T23:43:28.476Z,6.20
2023-02-07T23:45:55.391Z,6.35
2023-02-07T23:48:22.312Z,6.38
2023-02-07T23:50:53.820Z,6.50
2023-02-07T23:53:21.882Z,5.50
2023-02-07T23:55:50.005Z,7.18
2023-02-07T23:58:17.396Z,6.65
